Fox, Oregon
Current Conditions -  °F | °C
As of 7:35 PM on Friday 31 Oct 2014 (Local Time) from KGCD Reporting Station
Light Rain Light Rain  
Wind Chill: 46°   Ceiling: 3800
Heat Index: 46°   Visibility: 10mi
Dew Point: 44°   Wind: 3mph
Humidity: 93%   Direction: 230°SW
Pressure: 29.81"   Gusts: NA
Location:  44.65°N, 119.14°W
Report Text: KGCD 010235Z AUTO 23003KT 10SM -RA SCT025 OVC038 08/07 A2981 RMK AO2 T00770066
Loading
Personal Weather Stations






























Interactive Weather Map
Tropical Storm Tracking
New forecast layout! Learn more

10-Day Weather Forecast

Advertisements
Track Severe Weather on mobile